sensor_id;sensor_type;location;lat;lon;timestamp;P1;P2;P0
75960;PMS7003;64644;48.914;2.254;2022-11-15T00:00:41;4.50;4.50;4.25
75960;PMS7003;64644;48.914;2.254;2022-11-15T00:03:06;7.00;6.00;4.25
75960;PMS7003;64644;48.914;2.254;2022-11-15T00:05:34;7.25;5.75;4.00
75960;PMS7003;64644;48.914;2.254;2022-11-15T00:08:00;6.00;5.00;3.00
75960;PMS7003;64644;48.914;2.254;2022-11-15T00:10:26;3.25;3.25;3.00
75960;PMS7003;64644;48.914;2.254;2022-11-15T00:12:51;4.50;4.50;3.00
75960;PMS7003;64644;48.914;2.254;2022-11-15T00:15:16;5.50;3.25;3.00
75960;PMS7003;64644;48.914;2.254;2022-11-15T00:17:42;2.50;2.50;2.00
75960;PMS7003;64644;48.914;2.254;2022-11-15T00:20:07;4.00;4.00;2.00
75960;PMS7003;64644;48.914;2.254;2022-11-15T00:22:33;7.00;5.75;3.75
75960;PMS7003;64644;48.914;2.254;2022-11-15T00:24:59;6.00;4.25;2.50
75960;PMS7003;64644;48.914;2.254;2022-11-15T00:27:24;4.25;4.25;2.75
75960;PMS7003;64644;48.914;2.254;2022-11-15T00:29:50;4.75;4.75;3.25
75960;PMS7003;64644;48.914;2.254;2022-11-15T00:32:15;6.50;5.50;3.75
75960;PMS7003;64644;48.914;2.254;2022-11-15T00:34:40;6.00;5.00;3.00
75960;PMS7003;64644;48.914;2.254;2022-11-15T00:37:06;9.00;5.75;5.00
75960;PMS7003;64644;48.914;2.254;2022-11-15T00:39:32;4.00;2.50;2.00
75960;PMS7003;64644;48.914;2.254;2022-11-15T00:41:57;3.00;3.00;2.25
75960;PMS7003;64644;48.914;2.254;2022-11-15T00:44:22;3.25;3.25;2.00
75960;PMS7003;64644;48.914;2.254;2022-11-15T00:46:48;3.25;3.25;2.00
75960;PMS7003;64644;48.914;2.254;2022-11-15T00:49:13;5.25;3.00;2.00
75960;PMS7003;64644;48.914;2.254;2022-11-15T00:51:38;4.50;4.50;2.00
75960;PMS7003;64644;48.914;2.254;2022-11-15T00:54:04;3.50;2.75;2.00
75960;PMS7003;64644;48.914;2.254;2022-11-15T00:56:29;7.00;5.00;3.00
75960;PMS7003;64644;48.914;2.254;2022-11-15T00:58:55;2.75;2.75;2.00
75960;PMS7003;64644;48.914;2.254;2022-11-15T01:01:20;2.00;1.75;1.00
75960;PMS7003;64644;48.914;2.254;2022-11-15T01:03:45;3.00;3.00;2.00
75960;PMS7003;64644;48.914;2.254;2022-11-15T01:06:11;3.00;2.75;2.00
75960;PMS7003;64644;48.914;2.254;2022-11-15T01:08:37;5.00;2.50;2.00
75960;PMS7003;64644;48.914;2.254;2022-11-15T01:11:05;4.50;4.00;2.00
75960;PMS7003;64644;48.914;2.254;2022-11-15T01:13:36;4.25;2.00;1.75
75960;PMS7003;64644;48.914;2.254;2022-11-15T01:16:10;1.00;1.00;0.50
75960;PMS7003;64644;48.914;2.254;2022-11-15T01:18:38;4.00;3.00;2.00
75960;PMS7003;64644;48.914;2.254;2022-11-15T01:21:04;3.00;1.00;1.00
75960;PMS7003;64644;48.914;2.254;2022-11-15T01:23:33;2.00;2.00;1.00
75960;PMS7003;64644;48.914;2.254;2022-11-15T01:25:59;1.50;1.50;0.00
75960;PMS7003;64644;48.914;2.254;2022-11-15T01:28:28;3.50;3.00;2.00
75960;PMS7003;64644;48.914;2.254;2022-11-15T01:30:57;2.25;2.25;1.00
75960;PMS7003;64644;48.914;2.254;2022-11-15T01:33:23;1.75;1.75;1.00
75960;PMS7003;64644;48.914;2.254;2022-11-15T01:35:48;1.25;1.25;1.00
75960;PMS7003;64644;48.914;2.254;2022-11-15T01:38:14;2.00;2.00;1.00
75960;PMS7003;64644;48.914;2.254;2022-11-15T01:40:39;2.00;2.00;1.00
75960;PMS7003;64644;48.914;2.254;2022-11-15T01:43:21;5.00;3.00;1.00
75960;PMS7003;64644;48.914;2.254;2022-11-15T01:45:50;1.50;1.50;1.00
75960;PMS7003;64644;48.914;2.254;2022-11-15T01:48:19;4.00;2.00;1.00
75960;PMS7003;64644;48.914;2.254;2022-11-15T01:50:46;1.25;1.25;1.00
75960;PMS7003;64644;48.914;2.254;2022-11-15T01:53:12;1.00;1.00;1.00
75960;PMS7003;64644;48.914;2.254;2022-11-15T01:55:37;1.25;1.25;0.00
75960;PMS7003;64644;48.914;2.254;2022-11-15T01:58:03;2.00;2.00;1.00
75960;PMS7003;64644;48.914;2.254;2022-11-15T02:00:30;2.75;2.75;2.00
75960;PMS7003;64644;48.914;2.254;2022-11-15T02:02:56;2.00;2.00;1.00
75960;PMS7003;64644;48.914;2.254;2022-11-15T02:05:22;5.00;3.00;2.00
75960;PMS7003;64644;48.914;2.254;2022-11-15T02:07:48;3.50;2.00;1.00
75960;PMS7003;64644;48.914;2.254;2022-11-15T02:10:18;3.50;2.00;1.00
75960;PMS7003;64644;48.914;2.254;2022-11-15T02:12:45;3.00;2.00;1.25
75960;PMS7003;64644;48.914;2.254;2022-11-15T02:15:11;1.00;1.00;1.00
75960;PMS7003;64644;48.914;2.254;2022-11-15T02:28:38;3.75;2.50;1.75
75960;PMS7003;64644;48.914;2.254;2022-11-15T02:31:29;4.00;1.00;1.00
75960;PMS7003;64644;48.914;2.254;2022-11-15T02:45:06;3.50;2.00;1.00
75960;PMS7003;64644;48.914;2.254;2022-11-15T02:47:37;1.00;1.00;1.00
75960;PMS7003;64644;48.914;2.254;2022-11-15T02:50:08;2.00;2.00;1.00
75960;PMS7003;64644;48.914;2.254;2022-11-15T02:52:36;2.00;2.00;1.00
75960;PMS7003;64644;48.914;2.254;2022-11-15T02:55:02;1.00;1.00;1.00
75960;PMS7003;64644;48.914;2.254;2022-11-15T02:57:39;3.00;2.00;2.00
75960;PMS7003;64644;48.914;2.254;2022-11-15T03:00:17;2.00;2.00;2.00
75960;PMS7003;64644;48.914;2.254;2022-11-15T03:08:45;1.00;1.00;1.00
75960;PMS7003;64644;48.914;2.254;2022-11-15T03:11:24;4.25;2.50;2.00
75960;PMS7003;64644;48.914;2.254;2022-11-15T03:14:01;3.00;2.50;1.00
75960;PMS7003;64644;48.914;2.254;2022-11-15T03:16:37;3.00;2.00;1.25
75960;PMS7003;64644;48.914;2.254;2022-11-15T03:19:12;3.50;2.00;1.00
75960;PMS7003;64644;48.914;2.254;2022-11-15T03:21:39;3.00;3.00;3.00
75960;PMS7003;64644;48.914;2.254;2022-11-15T03:24:06;2.25;2.00;1.25
75960;PMS7003;64644;48.914;2.254;2022-11-15T03:26:34;2.25;2.25;2.25
75960;PMS7003;64644;48.914;2.254;2022-11-15T03:29:03;3.00;3.00;2.00
75960;PMS7003;64644;48.914;2.254;2022-11-15T03:31:35;8.50;3.00;2.00
75960;PMS7003;64644;48.914;2.254;2022-11-15T03:34:15;5.00;5.00;3.00
75960;PMS7003;64644;48.914;2.254;2022-11-15T03:36:47;6.00;6.00;3.00
75960;PMS7003;64644;48.914;2.254;2022-11-15T03:39:15;2.50;1.00;1.00
75960;PMS7003;64644;48.914;2.254;2022-11-15T03:41:48;2.00;2.00;1.00
75960;PMS7003;64644;48.914;2.254;2022-11-15T03:47:32;2.50;2.50;1.50
75960;PMS7003;64644;48.914;2.254;2022-11-15T03:50:03;3.50;2.50;1.50
75960;PMS7003;64644;48.914;2.254;2022-11-15T03:52:33;5.00;2.00;2.00
75960;PMS7003;64644;48.914;2.254;2022-11-15T03:55:00;1.25;1.25;1.00
75960;PMS7003;64644;48.914;2.254;2022-11-15T03:57:27;1.50;0.00;0.00
75960;PMS7003;64644;48.914;2.254;2022-11-15T03:59:53;3.00;2.75;1.00
75960;PMS7003;64644;48.914;2.254;2022-11-15T04:02:19;3.00;2.00;1.75
75960;PMS7003;64644;48.914;2.254;2022-11-15T04:04:44;1.25;1.25;1.00
75960;PMS7003;64644;48.914;2.254;2022-11-15T04:07:10;2.00;2.00;1.50
75960;PMS7003;64644;48.914;2.254;2022-11-15T04:09:35;1.25;1.25;1.00
75960;PMS7003;64644;48.914;2.254;2022-11-15T04:12:23;3.25;3.25;1.25
75960;PMS7003;64644;48.914;2.254;2022-11-15T04:14:58;4.50;3.00;2.00
75960;PMS7003;64644;48.914;2.254;2022-11-15T04:17:35;5.00;2.75;2.25
75960;PMS7003;64644;48.914;2.254;2022-11-15T04:20:26;1.25;1.25;1.00
75960;PMS7003;64644;48.914;2.254;2022-11-15T04:23:13;2.00;2.00;2.00
75960;PMS7003;64644;48.914;2.254;2022-11-15T04:26:01;2.25;2.00;1.25
75960;PMS7003;64644;48.914;2.254;2022-11-15T04:28:32;3.00;1.75;1.25
75960;PMS7003;64644;48.914;2.254;2022-11-15T04:30:57;3.75;2.75;2.00
75960;PMS7003;64644;48.914;2.254;2022-11-15T04:33:23;2.00;2.00;2.00
75960;PMS7003;64644;48.914;2.254;2022-11-15T04:35:48;5.50;3.00;1.50
75960;PMS7003;64644;48.914;2.254;2022-11-15T04:38:33;3.00;3.00;1.75
75960;PMS7003;64644;48.914;2.254;2022-11-15T04:40:59;4.00;1.75;1.00
75960;PMS7003;64644;48.914;2.254;2022-11-15T04:43:24;3.00;3.00;2.00
75960;PMS7003;64644;48.914;2.254;2022-11-15T04:45:50;1.00;1.00;1.00
75960;PMS7003;64644;48.914;2.254;2022-11-15T04:48:15;5.00;5.00;2.75
75960;PMS7003;64644;48.914;2.254;2022-11-15T04:50:49;1.00;1.00;1.00
75960;PMS7003;64644;48.914;2.254;2022-11-15T04:53:15;2.00;2.00;1.00
75960;PMS7003;64644;48.914;2.254;2022-11-15T04:55:40;3.00;1.50;1.00
75960;PMS7003;64644;48.914;2.254;2022-11-15T04:58:09;2.75;2.25;2.00
75960;PMS7003;64644;48.914;2.254;2022-11-15T05:00:35;5.00;2.50;2.00
75960;PMS7003;64644;48.914;2.254;2022-11-15T05:03:00;2.50;1.00;1.00
75960;PMS7003;64644;48.914;2.254;2022-11-15T05:05:44;4.50;3.00;2.00
75960;PMS7003;64644;48.914;2.254;2022-11-15T05:08:10;5.00;5.00;2.00
75960;PMS7003;64644;48.914;2.254;2022-11-15T05:10:35;2.00;2.00;1.00
75960;PMS7003;64644;48.914;2.254;2022-11-15T05:13:00;2.00;2.00;2.00
75960;PMS7003;64644;48.914;2.254;2022-11-15T05:15:26;2.50;1.25;1.00
75960;PMS7003;64644;48.914;2.254;2022-11-15T05:17:56;5.50;1.00;1.00
75960;PMS7003;64644;48.914;2.254;2022-11-15T05:20:22;1.25;1.25;1.25
75960;PMS7003;64644;48.914;2.254;2022-11-15T05:22:48;3.00;3.00;2.00
75960;PMS7003;64644;48.914;2.254;2022-11-15T05:25:13;2.00;2.00;1.50
75960;PMS7003;64644;48.914;2.254;2022-11-15T05:27:38;2.50;1.50;1.00
75960;PMS7003;64644;48.914;2.254;2022-11-15T05:30:04;2.50;2.25;1.75
75960;PMS7003;64644;48.914;2.254;2022-11-15T05:32:29;4.50;4.50;1.25
75960;PMS7003;64644;48.914;2.254;2022-11-15T05:34:55;2.00;2.00;2.00
75960;PMS7003;64644;48.914;2.254;2022-11-15T05:37:21;3.00;2.00;1.00
75960;PMS7003;64644;48.914;2.254;2022-11-15T05:39:46;2.50;2.50;2.00
75960;PMS7003;64644;48.914;2.254;2022-11-15T05:42:12;3.00;3.00;2.00
75960;PMS7003;64644;48.914;2.254;2022-11-15T05:44:40;3.00;2.00;2.00
75960;PMS7003;64644;48.914;2.254;2022-11-15T05:47:10;2.00;2.00;2.00
75960;PMS7003;64644;48.914;2.254;2022-11-15T05:49:38;4.00;2.50;1.50
75960;PMS7003;64644;48.914;2.254;2022-11-15T05:52:07;2.00;2.00;2.00
75960;PMS7003;64644;48.914;2.254;2022-11-15T05:54:36;3.75;3.75;2.75
75960;PMS7003;64644;48.914;2.254;2022-11-15T05:57:03;7.00;4.50;2.00
75960;PMS7003;64644;48.914;2.254;2022-11-15T05:59:29;6.00;4.00;2.00
75960;PMS7003;64644;48.914;2.254;2022-11-15T06:01:55;3.50;3.00;1.75
75960;PMS7003;64644;48.914;2.254;2022-11-15T06:04:21;5.00;5.00;2.25
75960;PMS7003;64644;48.914;2.254;2022-11-15T06:06:46;5.00;2.75;2.00
75960;PMS7003;64644;48.914;2.254;2022-11-15T06:09:12;5.25;2.25;2.00
75960;PMS7003;64644;48.914;2.254;2022-11-15T06:11:37;6.50;6.50;4.50
75960;PMS7003;64644;48.914;2.254;2022-11-15T06:14:03;6.75;6.75;4.00
75960;PMS7003;64644;48.914;2.254;2022-11-15T06:16:28;5.00;5.00;2.00
75960;PMS7003;64644;48.914;2.254;2022-11-15T06:18:53;6.75;6.75;5.00
75960;PMS7003;64644;48.914;2.254;2022-11-15T06:21:19;6.75;6.50;3.00
75960;PMS7003;64644;48.914;2.254;2022-11-15T06:23:44;5.00;5.00;3.00
75960;PMS7003;64644;48.914;2.254;2022-11-15T06:26:10;2.75;2.75;2.00
75960;PMS7003;64644;48.914;2.254;2022-11-15T06:28:35;5.75;5.00;3.00
75960;PMS7003;64644;48.914;2.254;2022-11-15T06:31:04;5.00;2.25;2.00
75960;PMS7003;64644;48.914;2.254;2022-11-15T06:33:31;6.25;5.00;4.00
75960;PMS7003;64644;48.914;2.254;2022-11-15T06:35:59;3.00;1.50;0.50
75960;PMS7003;64644;48.914;2.254;2022-11-15T06:38:28;3.00;3.00;2.00
75960;PMS7003;64644;48.914;2.254;2022-11-15T06:40:54;6.00;5.25;2.50
75960;PMS7003;64644;48.914;2.254;2022-11-15T06:43:19;2.75;2.75;2.50
75960;PMS7003;64644;48.914;2.254;2022-11-15T06:45:45;5.25;5.00;3.00
75960;PMS7003;64644;48.914;2.254;2022-11-15T06:48:10;7.00;5.00;3.00
75960;PMS7003;64644;48.914;2.254;2022-11-15T06:50:35;5.50;5.50;2.50
75960;PMS7003;64644;48.914;2.254;2022-11-15T06:53:02;6.00;3.00;2.75
75960;PMS7003;64644;48.914;2.254;2022-11-15T06:55:28;5.00;4.50;3.00
75960;PMS7003;64644;48.914;2.254;2022-11-15T06:57:54;5.25;5.00;3.50
75960;PMS7003;64644;48.914;2.254;2022-11-15T07:00:20;6.75;4.75;2.75
75960;PMS7003;64644;48.914;2.254;2022-11-15T07:02:46;4.00;4.00;2.75
75960;PMS7003;64644;48.914;2.254;2022-11-15T07:05:12;7.00;7.00;5.25
75960;PMS7003;64644;48.914;2.254;2022-11-15T07:07:39;8.50;7.75;4.00
75960;PMS7003;64644;48.914;2.254;2022-11-15T07:10:04;6.50;4.00;3.00
75960;PMS7003;64644;48.914;2.254;2022-11-15T07:12:31;6.00;6.00;3.00
75960;PMS7003;64644;48.914;2.254;2022-11-15T07:14:56;6.00;3.50;2.25
75960;PMS7003;64644;48.914;2.254;2022-11-15T07:17:21;4.00;4.00;3.00
75960;PMS7003;64644;48.914;2.254;2022-11-15T07:19:48;5.00;2.00;1.50
75960;PMS7003;64644;48.914;2.254;2022-11-15T07:22:13;5.00;5.00;2.75
75960;PMS7003;64644;48.914;2.254;2022-11-15T07:24:39;9.00;5.00;2.75
75960;PMS7003;64644;48.914;2.254;2022-11-15T07:27:04;6.50;5.25;3.00
75960;PMS7003;64644;48.914;2.254;2022-11-15T07:29:30;5.75;5.75;3.00
75960;PMS7003;64644;48.914;2.254;2022-11-15T07:31:56;5.00;5.00;3.00
75960;PMS7003;64644;48.914;2.254;2022-11-15T07:34:21;4.00;3.00;2.00
75960;PMS7003;64644;48.914;2.254;2022-11-15T07:36:47;4.00;4.00;2.75
75960;PMS7003;64644;48.914;2.254;2022-11-15T07:39:12;6.00;6.00;4.50
75960;PMS7003;64644;48.914;2.254;2022-11-15T07:41:39;5.00;5.00;3.00
75960;PMS7003;64644;48.914;2.254;2022-11-15T07:44:04;5.50;5.00;3.50
75960;PMS7003;64644;48.914;2.254;2022-11-15T07:46:30;7.00;3.50;2.50
75960;PMS7003;64644;48.914;2.254;2022-11-15T07:48:56;4.00;4.00;2.25
75960;PMS7003;64644;48.914;2.254;2022-11-15T07:51:22;6.25;3.50;2.75
75960;PMS7003;64644;48.914;2.254;2022-11-15T07:53:47;5.00;3.00;2.75
75960;PMS7003;64644;48.914;2.254;2022-11-15T07:56:12;6.25;4.00;2.75
75960;PMS7003;64644;48.914;2.254;2022-11-15T07:58:38;5.00;4.50;3.00
75960;PMS7003;64644;48.914;2.254;2022-11-15T08:01:04;5.75;4.00;2.00
75960;PMS7003;64644;48.914;2.254;2022-11-15T08:03:31;6.00;2.50;2.50
75960;PMS7003;64644;48.914;2.254;2022-11-15T08:05:57;4.50;2.75;1.00
75960;PMS7003;64644;48.914;2.254;2022-11-15T08:08:23;6.00;6.00;3.00
75960;PMS7003;64644;48.914;2.254;2022-11-15T08:10:48;7.75;6.00;4.00
75960;PMS7003;64644;48.914;2.254;2022-11-15T08:13:14;4.50;4.50;2.25
75960;PMS7003;64644;48.914;2.254;2022-11-15T08:15:40;5.50;3.00;2.25
75960;PMS7003;64644;48.914;2.254;2022-11-15T08:18:06;4.50;4.50;2.00
75960;PMS7003;64644;48.914;2.254;2022-11-15T08:20:35;5.00;2.00;2.00
75960;PMS7003;64644;48.914;2.254;2022-11-15T08:23:01;6.00;5.50;2.00
75960;PMS7003;64644;48.914;2.254;2022-11-15T08:25:28;5.00;5.00;3.00
75960;PMS7003;64644;48.914;2.254;2022-11-15T08:27:56;6.00;6.00;3.00
75960;PMS7003;64644;48.914;2.254;2022-11-15T08:30:24;5.25;5.25;3.00
75960;PMS7003;64644;48.914;2.254;2022-11-15T08:32:50;4.50;4.50;2.25
75960;PMS7003;64644;48.914;2.254;2022-11-15T08:35:17;5.00;5.00;2.00
75960;PMS7003;64644;48.914;2.254;2022-11-15T08:37:43;0.00;0.00;0.00
75960;PMS7003;64644;48.914;2.254;2022-11-15T08:40:08;4.50;3.00;2.25
75960;PMS7003;64644;48.914;2.254;2022-11-15T08:42:34;5.00;5.00;3.00
75960;PMS7003;64644;48.914;2.254;2022-11-15T08:45:00;6.75;5.00;3.00
75960;PMS7003;64644;48.914;2.254;2022-11-15T08:47:25;5.50;5.00;2.25
75960;PMS7003;64644;48.914;2.254;2022-11-15T08:49:51;6.75;2.25;1.50
75960;PMS7003;64644;48.914;2.254;2022-11-15T08:52:16;5.00;3.00;2.75
75960;PMS7003;64644;48.914;2.254;2022-11-15T08:54:42;5.00;5.00;3.00
75960;PMS7003;64644;48.914;2.254;2022-11-15T08:57:07;5.00;4.00;2.25
75960;PMS7003;64644;48.914;2.254;2022-11-15T08:59:34;5.75;5.00;3.00
75960;PMS7003;64644;48.914;2.254;2022-11-15T09:02:00;7.75;5.00;2.00
75960;PMS7003;64644;48.914;2.254;2022-11-15T09:04:25;4.50;4.50;2.50
75960;PMS7003;64644;48.914;2.254;2022-11-15T09:06:50;2.00;2.00;2.00
75960;PMS7003;64644;48.914;2.254;2022-11-15T09:09:16;5.00;3.50;2.00
75960;PMS7003;64644;48.914;2.254;2022-11-15T09:11:41;4.50;3.50;2.00
75960;PMS7003;64644;48.914;2.254;2022-11-15T09:14:06;3.00;3.00;2.00
75960;PMS7003;64644;48.914;2.254;2022-11-15T09:16:32;3.50;3.00;2.75
75960;PMS7003;64644;48.914;2.254;2022-11-15T09:18:57;2.00;2.00;2.00
75960;PMS7003;64644;48.914;2.254;2022-11-15T09:21:23;3.00;2.25;2.00
75960;PMS7003;64644;48.914;2.254;2022-11-15T09:23:51;8.00;3.00;2.00
75960;PMS7003;64644;48.914;2.254;2022-11-15T09:26:17;2.50;2.00;2.00
75960;PMS7003;64644;48.914;2.254;2022-11-15T09:28:43;3.00;2.25;1.50
75960;PMS7003;64644;48.914;2.254;2022-11-15T09:31:08;2.50;2.50;2.00
75960;PMS7003;64644;48.914;2.254;2022-11-15T09:33:34;3.00;2.00;1.00
75960;PMS7003;64644;48.914;2.254;2022-11-15T09:36:00;5.00;5.00;2.00
75960;PMS7003;64644;48.914;2.254;2022-11-15T09:38:28;5.00;2.50;2.50
75960;PMS7003;64644;48.914;2.254;2022-11-15T09:40:57;3.75;3.75;2.25
75960;PMS7003;64644;48.914;2.254;2022-11-15T09:44:17;2.75;1.75;1.00
75960;PMS7003;64644;48.914;2.254;2022-11-15T09:49:38;5.00;3.00;2.00
75960;PMS7003;64644;48.914;2.254;2022-11-15T09:52:04;5.75;3.00;2.00
75960;PMS7003;64644;48.914;2.254;2022-11-15T09:54:36;3.00;2.00;1.50
75960;PMS7003;64644;48.914;2.254;2022-11-15T09:57:13;2.50;2.25;2.00
75960;PMS7003;64644;48.914;2.254;2022-11-15T10:00:04;4.50;4.00;2.00
75960;PMS7003;64644;48.914;2.254;2022-11-15T10:05:10;3.00;3.00;1.75
75960;PMS7003;64644;48.914;2.254;2022-11-15T10:07:57;3.75;3.75;2.00
75960;PMS7003;64644;48.914;2.254;2022-11-15T10:13:13;2.75;1.00;1.00
75960;PMS7003;64644;48.914;2.254;2022-11-15T10:15:45;2.50;2.50;2.00
75960;PMS7003;64644;48.914;2.254;2022-11-15T10:21:45;3.25;3.00;2.00
75960;PMS7003;64644;48.914;2.254;2022-11-15T10:23:54;5.25;3.00;2.00
75960;PMS7003;64644;48.914;2.254;2022-11-15T10:26:20;5.25;2.75;2.00
75960;PMS7003;64644;48.914;2.254;2022-11-15T10:28:48;2.00;2.00;1.75
75960;PMS7003;64644;48.914;2.254;2022-11-15T10:33:58;2.25;2.25;2.00
75960;PMS7003;64644;48.914;2.254;2022-11-15T10:36:37;4.50;2.00;2.00
75960;PMS7003;64644;48.914;2.254;2022-11-15T10:39:03;5.50;2.00;1.25
75960;PMS7003;64644;48.914;2.254;2022-11-15T10:46:32;4.50;4.50;2.00
75960;PMS7003;64644;48.914;2.254;2022-11-15T10:49:15;3.00;3.00;2.00
75960;PMS7003;64644;48.914;2.254;2022-11-15T10:51:52;3.50;2.00;2.00
75960;PMS7003;64644;48.914;2.254;2022-11-15T10:54:35;3.75;3.25;2.00
75960;PMS7003;64644;48.914;2.254;2022-11-15T10:57:08;4.00;4.00;2.00
75960;PMS7003;64644;48.914;2.254;2022-11-15T10:59:38;4.50;3.00;2.00
75960;PMS7003;64644;48.914;2.254;2022-11-15T11:05:05;3.00;3.00;2.00
75960;PMS7003;64644;48.914;2.254;2022-11-15T11:07:55;5.75;5.00;3.00
75960;PMS7003;64644;48.914;2.254;2022-11-15T11:10:26;5.00;4.50;3.00
75960;PMS7003;64644;48.914;2.254;2022-11-15T11:12:52;6.00;4.25;2.00
75960;PMS7003;64644;48.914;2.254;2022-11-15T11:15:18;5.00;5.00;3.00
75960;PMS7003;64644;48.914;2.254;2022-11-15T11:20:54;2.00;2.00;1.00
75960;PMS7003;64644;48.914;2.254;2022-11-15T11:31:52;3.25;3.00;2.25
75960;PMS7003;64644;48.914;2.254;2022-11-15T11:34:29;4.75;4.75;2.75
75960;PMS7003;64644;48.914;2.254;2022-11-15T11:45:00;7.00;4.25;2.50
75960;PMS7003;64644;48.914;2.254;2022-11-15T11:47:39;4.25;4.25;3.00
75960;PMS7003;64644;48.914;2.254;2022-11-15T11:50:17;8.00;6.50;5.50
75960;PMS7003;64644;48.914;2.254;2022-11-15T11:55:18;6.00;6.00;4.50
75960;PMS7003;64644;48.914;2.254;2022-11-15T11:57:51;3.00;3.00;2.00
75960;PMS7003;64644;48.914;2.254;2022-11-15T12:00:27;4.25;3.00;2.00
75960;PMS7003;64644;48.914;2.254;2022-11-15T12:05:39;5.50;5.50;4.00
75960;PMS7003;64644;48.914;2.254;2022-11-15T12:10:52;6.75;6.00;5.25
75960;PMS7003;64644;48.914;2.254;2022-11-15T12:13:25;7.50;6.50;2.50
75960;PMS7003;64644;48.914;2.254;2022-11-15T12:18:40;2.25;2.00;2.00
75960;PMS7003;64644;48.914;2.254;2022-11-15T12:21:16;8.00;7.00;5.50
75960;PMS7003;64644;48.914;2.254;2022-11-15T12:24:01;6.25;5.50;4.25
75960;PMS7003;64644;48.914;2.254;2022-11-15T12:26:35;8.50;8.00;5.75
75960;PMS7003;64644;48.914;2.254;2022-11-15T12:29:15;6.75;6.25;4.50
75960;PMS7003;64644;48.914;2.254;2022-11-15T12:31:52;6.25;4.00;3.00
75960;PMS7003;64644;48.914;2.254;2022-11-15T12:36:47;6.50;6.00;3.50
75960;PMS7003;64644;48.914;2.254;2022-11-15T12:39:14;8.25;6.25;3.50
75960;PMS7003;64644;48.914;2.254;2022-11-15T12:41:42;5.75;5.75;3.00
75960;PMS7003;64644;48.914;2.254;2022-11-15T13:02:41;8.00;8.00;6.00
75960;PMS7003;64644;48.914;2.254;2022-11-15T13:22:41;5.00;5.00;4.00
75960;PMS7003;64644;48.914;2.254;2022-11-15T13:28:11;6.75;6.25;5.00
75960;PMS7003;64644;48.914;2.254;2022-11-15T13:30:53;9.25;8.00;6.25
75960;PMS7003;64644;48.914;2.254;2022-11-15T13:33:42;8.50;7.00;6.00
75960;PMS7003;64644;48.914;2.254;2022-11-15T13:36:07;4.00;4.00;2.00
75960;PMS7003;64644;48.914;2.254;2022-11-15T13:38:39;8.50;7.00;5.50
75960;PMS7003;64644;48.914;2.254;2022-11-15T13:43:58;7.75;7.75;6.00
75960;PMS7003;64644;48.914;2.254;2022-11-15T13:46:29;3.75;3.75;3.00
75960;PMS7003;64644;48.914;2.254;2022-11-15T13:49:03;4.75;4.50;3.00
75960;PMS7003;64644;48.914;2.254;2022-11-15T13:54:20;3.75;3.75;3.00
75960;PMS7003;64644;48.914;2.254;2022-11-15T13:56:53;3.00;3.00;1.25
75960;PMS7003;64644;48.914;2.254;2022-11-15T14:01:47;4.00;4.00;3.00
75960;PMS7003;64644;48.914;2.254;2022-11-15T14:04:17;5.50;3.50;2.00
75960;PMS7003;64644;48.914;2.254;2022-11-15T14:06:45;4.50;4.00;2.25
75960;PMS7003;64644;48.914;2.254;2022-11-15T14:11:49;0.50;0.50;0.00
75960;PMS7003;64644;48.914;2.254;2022-11-15T14:14:19;3.75;3.75;2.00
75960;PMS7003;64644;48.914;2.254;2022-11-15T14:16:47;4.50;4.50;3.00
75960;PMS7003;64644;48.914;2.254;2022-11-15T14:24:43;3.00;3.00;2.00
75960;PMS7003;64644;48.914;2.254;2022-11-15T14:29:52;6.25;6.25;4.00
75960;PMS7003;64644;48.914;2.254;2022-11-15T14:32:18;4.00;4.00;4.00
75960;PMS7003;64644;48.914;2.254;2022-11-15T14:34:48;4.00;4.00;3.00
75960;PMS7003;64644;48.914;2.254;2022-11-15T14:39:46;6.75;6.00;4.00
75960;PMS7003;64644;48.914;2.254;2022-11-15T14:42:11;6.25;4.50;3.00
75960;PMS7003;64644;48.914;2.254;2022-11-15T14:44:37;6.25;6.25;3.00
75960;PMS7003;64644;48.914;2.254;2022-11-15T14:47:02;7.25;6.00;3.50
75960;PMS7003;64644;48.914;2.254;2022-11-15T14:49:28;7.50;6.00;3.75
75960;PMS7003;64644;48.914;2.254;2022-11-15T14:51:53;7.50;7.50;5.50
75960;PMS7003;64644;48.914;2.254;2022-11-15T14:54:18;6.50;6.00;4.00
75960;PMS7003;64644;48.914;2.254;2022-11-15T14:56:44;8.00;7.00;6.00
75960;PMS7003;64644;48.914;2.254;2022-11-15T14:59:09;6.25;6.00;4.00
75960;PMS7003;64644;48.914;2.254;2022-11-15T15:01:36;8.00;7.50;4.00
75960;PMS7003;64644;48.914;2.254;2022-11-15T15:04:01;7.50;7.00;4.00
75960;PMS7003;64644;48.914;2.254;2022-11-15T15:06:27;6.25;6.25;3.50
75960;PMS7003;64644;48.914;2.254;2022-11-15T15:08:52;7.25;6.75;4.00
75960;PMS7003;64644;48.914;2.254;2022-11-15T15:11:22;6.00;6.00;4.00
75960;PMS7003;64644;48.914;2.254;2022-11-15T15:13:51;9.50;7.75;6.00
75960;PMS7003;64644;48.914;2.254;2022-11-15T15:16:17;9.00;7.00;4.00
75960;PMS7003;64644;48.914;2.254;2022-11-15T15:18:43;8.75;8.75;6.00
75960;PMS7003;64644;48.914;2.254;2022-11-15T15:23:51;6.75;6.75;6.00
75960;PMS7003;64644;48.914;2.254;2022-11-15T15:26:18;7.00;7.00;4.00
75960;PMS7003;64644;48.914;2.254;2022-11-15T15:28:44;7.75;6.25;5.00
75960;PMS7003;64644;48.914;2.254;2022-11-15T15:31:10;7.75;7.25;6.00
75960;PMS7003;64644;48.914;2.254;2022-11-15T15:33:36;9.00;6.25;4.50
75960;PMS7003;64644;48.914;2.254;2022-11-15T15:36:01;8.75;8.75;7.00
75960;PMS7003;64644;48.914;2.254;2022-11-15T15:38:27;8.00;8.00;6.00
75960;PMS7003;64644;48.914;2.254;2022-11-15T15:40:53;8.00;8.00;6.50
75960;PMS7003;64644;48.914;2.254;2022-11-15T15:43:18;7.75;7.75;6.25
75960;PMS7003;64644;48.914;2.254;2022-11-15T15:45:43;10.50;10.50;8.00
75960;PMS7003;64644;48.914;2.254;2022-11-15T15:48:13;8.75;8.75;7.00
75960;PMS7003;64644;48.914;2.254;2022-11-15T15:50:40;7.00;7.00;6.00
75960;PMS7003;64644;48.914;2.254;2022-11-15T15:53:07;7.50;7.50;5.50
75960;PMS7003;64644;48.914;2.254;2022-11-15T15:55:35;3.00;2.00;1.00
75960;PMS7003;64644;48.914;2.254;2022-11-15T15:58:01;10.25;9.00;6.50
75960;PMS7003;64644;48.914;2.254;2022-11-15T16:00:26;9.75;9.75;7.00
75960;PMS7003;64644;48.914;2.254;2022-11-15T16:02:52;10.25;9.00;6.00
75960;PMS7003;64644;48.914;2.254;2022-11-15T16:05:18;13.75;8.50;6.00
75960;PMS7003;64644;48.914;2.254;2022-11-15T16:07:44;41.25;37.25;24.25
75960;PMS7003;64644;48.914;2.254;2022-11-15T16:12:39;12.75;12.00;7.50
75960;PMS7003;64644;48.914;2.254;2022-11-15T16:15:05;12.25;10.25;7.00
75960;PMS7003;64644;48.914;2.254;2022-11-15T16:17:32;12.50;8.50;7.00
75960;PMS7003;64644;48.914;2.254;2022-11-15T16:20:00;9.00;9.00;7.00
75960;PMS7003;64644;48.914;2.254;2022-11-15T16:22:27;11.00;9.50;6.00
75960;PMS7003;64644;48.914;2.254;2022-11-15T16:24:54;8.25;8.25;7.00
75960;PMS7003;64644;48.914;2.254;2022-11-15T16:27:19;8.00;7.75;5.75
75960;PMS7003;64644;48.914;2.254;2022-11-15T16:29:46;12.00;9.00;6.75
75960;PMS7003;64644;48.914;2.254;2022-11-15T16:32:12;10.25;9.50;7.00
75960;PMS7003;64644;48.914;2.254;2022-11-15T16:34:38;11.25;11.25;7.25
75960;PMS7003;64644;48.914;2.254;2022-11-15T16:37:03;7.00;6.50;6.00
75960;PMS7003;64644;48.914;2.254;2022-11-15T16:39:29;8.00;7.75;6.00
75960;PMS7003;64644;48.914;2.254;2022-11-15T16:41:56;9.00;8.75;7.00
75960;PMS7003;64644;48.914;2.254;2022-11-15T16:44:22;11.25;9.75;7.00
75960;PMS7003;64644;48.914;2.254;2022-11-15T16:46:48;10.25;9.00;6.50
75960;PMS7003;64644;48.914;2.254;2022-11-15T16:49:16;7.00;7.00;6.00
75960;PMS7003;64644;48.914;2.254;2022-11-15T16:51:42;12.25;10.00;8.00
75960;PMS7003;64644;48.914;2.254;2022-11-15T16:54:10;8.00;7.00;4.50
75960;PMS7003;64644;48.914;2.254;2022-11-15T16:56:36;8.00;8.00;7.00
75960;PMS7003;64644;48.914;2.254;2022-11-15T16:59:02;12.00;10.50;7.75